Time;durP1;ratioP1;P1;durP2;ratioP2;P2;SDS_P1;SDS_P2;PMS_P1;PMS_P2;Temp;Humidity;BMP_temperature;BMP_pressure;BME280_temperature;BME280_humidity;BME280_pressure;Samples;Min_cycle;Max_cycle;Signal;HPM_P1;HPM_P2
2021/08/01 00:00:02;;;;;;;2.60;2.10;;;20.20;80.90;;;;;;5050544;28;20443;-52
2021/08/01 00:02:39;;;;;;;2.50;2.23;;;20.10;81.30;;;;;;5051223;28;20425;-52
2021/08/01 00:05:06;;;;;;;4.10;1.87;;;20.10;81.80;;;;;;5054788;28;20482;-52
2021/08/01 00:07:36;;;;;;;2.80;2.33;;;20.10;81.90;;;;;;5055255;28;20458;-54
2021/08/01 00:10:03;;;;;;;3.70;2.20;;;20.10;82.10;;;;;;5054870;28;20445;-52
2021/08/01 00:12:30;;;;;;;3.20;2.07;;;20.00;82.30;;;;;;5055195;28;20499;-52
2021/08/01 00:14:57;;;;;;;4.43;2.73;;;20.00;82.60;;;;;;5055205;28;20444;-52
2021/08/01 00:17:24;;;;;;;3.13;2.30;;;20.00;82.60;;;;;;5054955;28;20993;-52
2021/08/01 00:19:50;;;;;;;3.73;2.50;;;20.00;82.80;;;;;;5053454;28;21020;-52
2021/08/01 00:22:17;;;;;;;5.27;2.40;;;19.90;83.10;;;;;;5055111;28;20942;-52
2021/08/01 00:24:45;;;;;;;2.93;2.20;;;20.20;83.60;;;;;;5054899;28;20470;-52
2021/08/01 00:27:12;;;;;;;5.43;2.50;;;19.90;83.40;;;;;;5055010;28;20465;-52
2021/08/01 00:29:39;;;;;;;5.33;2.50;;;19.90;83.50;;;;;;5054768;28;20954;-52
2021/08/01 00:32:07;;;;;;;3.10;2.00;;;19.90;83.70;;;;;;5053011;28;21061;-52
2021/08/01 00:34:34;;;;;;;3.23;2.13;;;19.90;83.90;;;;;;5053584;28;20450;-52
2021/08/01 00:37:00;;;;;;;4.23;2.63;;;19.90;84.00;;;;;;5054732;28;20970;-52
2021/08/01 00:39:28;;;;;;;2.90;1.90;;;19.80;84.10;;;;;;5054318;28;20434;-52
2021/08/01 00:41:57;;;;;;;3.50;2.33;;;19.80;84.50;;;;;;5054860;28;20504;-52
2021/08/01 00:44:24;;;;;;;4.77;3.10;;;19.80;84.70;;;;;;5053240;28;20481;-52
2021/08/01 00:46:51;;;;;;;5.40;2.17;;;19.70;84.80;;;;;;5053927;28;20469;-52
2021/08/01 00:49:17;;;;;;;4.53;2.50;;;19.70;85.00;;;;;;5053992;28;20448;-53
2021/08/01 00:51:44;;;;;;;2.97;2.33;;;19.70;85.80;;;;;;5054574;28;20444;-52
2021/08/01 00:54:12;;;;;;;2.80;2.50;;;19.70;85.10;;;;;;5053141;28;20492;-53
2021/08/01 00:56:39;;;;;;;2.70;2.10;;;19.70;85.40;;;;;;5052927;28;20474;-52
2021/08/01 00:59:07;;;;;;;6.60;3.20;;;19.70;85.80;;;;;;5052717;28;20481;-52
2021/08/01 01:01:39;;;;;;;2.90;2.20;;;19.90;86.20;;;;;;5054144;28;20796;-53
2021/08/01 01:04:15;;;;;;;4.83;2.53;;;19.60;86.00;;;;;;5054284;28;20445;-52
2021/08/01 01:06:52;;;;;;;4.63;2.30;;;19.60;86.90;;;;;;5052748;28;20561;-53
2021/08/01 01:09:24;;;;;;;4.40;2.90;;;19.60;86.50;;;;;;5052628;28;20454;-53
2021/08/01 01:12:05;;;;;;;3.13;2.40;;;19.60;87.50;;;;;;5054267;28;20426;-53
2021/08/01 01:14:41;;;;;;;9.20;2.67;;;19.50;86.90;;;;;;5052821;28;20457;-53
2021/08/01 01:17:11;;;;;;;3.67;2.23;;;19.50;87.10;;;;;;5053268;28;20551;-52
2021/08/01 01:20:04;;;;;;;4.20;2.80;;;19.50;87.50;;;;;;5052494;28;20545;-53
2021/08/01 01:22:40;;;;;;;6.07;2.73;;;19.50;87.60;;;;;;5052642;28;20965;-52
2021/08/01 01:25:37;;;;;;;2.80;2.10;;;19.40;87.60;;;;;;5053675;28;20477;-52
2021/08/01 01:28:10;;;;;;;4.00;2.63;;;19.40;87.80;;;;;;5053589;28;20533;-52
2021/08/01 01:30:45;;;;;;;5.40;2.43;;;19.20;87.90;;;;;;5053885;28;20441;-52
2021/08/01 01:33:18;;;;;;;5.00;2.80;;;19.50;88.30;;;;;;5053646;28;20988;-53
2021/08/01 01:35:51;;;;;;;2.57;2.37;;;19.40;88.30;;;;;;5052435;28;20450;-53
2021/08/01 01:38:21;;;;;;;3.33;2.40;;;19.40;88.50;;;;;;5051888;28;20465;-53
2021/08/01 01:41:07;;;;;;;3.47;2.67;;;19.30;88.60;;;;;;5053573;28;20429;-54
2021/08/01 01:43:53;;;;;;;4.07;2.37;;;19.30;88.60;;;;;;5053653;28;20553;-54
2021/08/01 01:46:22;;;;;;;3.60;2.50;;;19.30;88.80;;;;;;5051875;28;20540;-54
2021/08/01 01:48:50;;;;;;;3.30;2.30;;;19.30;89.00;;;;;;5052032;28;20457;-51
2021/08/01 01:51:18;;;;;;;3.03;2.33;;;19.40;89.40;;;;;;5052298;28;20464;-53
2021/08/01 01:53:47;;;;;;;3.50;2.37;;;19.30;89.40;;;;;;5052139;28;20449;-56
2021/08/01 01:56:15;;;;;;;4.20;3.40;;;19.20;89.40;;;;;;5051881;28;20450;-53
2021/08/01 01:58:43;;;;;;;3.20;2.43;;;19.20;89.50;;;;;;5052828;28;20945;-54
2021/08/01 02:01:11;;;;;;;4.60;3.10;;;19.10;90.20;;;;;;5052972;28;20441;-54
2021/08/01 02:03:39;;;;;;;3.40;2.97;;;19.20;90.00;;;;;;5052151;28;20824;-54
2021/08/01 02:06:09;;;;;;;3.33;3.03;;;19.40;90.10;;;;;;5053098;28;20619;-54
2021/08/01 02:09:03;;;;;;;3.73;2.60;;;19.20;90.10;;;;;;5052785;28;20866;-54
2021/08/01 02:11:45;;;;;;;3.23;2.77;;;19.20;90.10;;;;;;5052157;28;20811;-53
2021/08/01 02:14:27;;;;;;;3.47;2.93;;;19.10;90.10;;;;;;5051441;28;20453;-53
2021/08/01 02:17:02;;;;;;;2.83;2.50;;;19.10;90.30;;;;;;5051602;28;20481;-53
2021/08/01 02:19:32;;;;;;;3.00;2.70;;;19.10;90.30;;;;;;5051086;28;20452;-53
2021/08/01 02:22:01;;;;;;;4.33;2.77;;;19.10;90.40;;;;;;5051579;28;20560;-53
2021/08/01 02:24:31;;;;;;;4.17;3.00;;;19.10;90.50;;;;;;5051529;28;20460;-53
2021/08/01 02:27:00;;;;;;;6.40;3.13;;;19.10;90.60;;;;;;5050348;28;20527;-53
2021/08/01 02:29:28;;;;;;;10.43;2.77;;;19.00;90.70;;;;;;5050954;28;20458;-53
2021/08/01 02:31:56;;;;;;;3.23;2.83;;;19.00;90.80;;;;;;5051324;28;20450;-53
2021/08/01 02:34:31;;;;;;;4.57;2.70;;;19.10;91.00;;;;;;5051382;28;20992;-53
2021/08/01 02:37:01;;;;;;;4.83;3.10;;;19.00;90.90;;;;;;5051248;28;20853;-53
2021/08/01 02:39:30;;;;;;;3.93;2.93;;;19.20;91.30;;;;;;5050934;28;20450;-53
2021/08/01 02:42:00;;;;;;;3.40;2.80;;;18.90;91.10;;;;;;5052673;28;20856;-53
2021/08/01 02:44:28;;;;;;;4.00;3.30;;;19.00;91.30;;;;;;5051135;28;20453;-53
2021/08/01 02:46:58;;;;;;;3.67;3.17;;;19.40;91.60;;;;;;5050917;28;20481;-53
2021/08/01 02:49:28;;;;;;;5.53;3.60;;;18.80;91.40;;;;;;5052220;28;20450;-53
2021/08/01 02:52:00;;;;;;;4.10;2.70;;;19.20;91.90;;;;;;5051098;28;20949;-50
2021/08/01 02:54:31;;;;;;;3.60;2.90;;;18.90;91.80;;;;;;5051000;28;20458;-53
2021/08/01 02:57:01;;;;;;;5.60;2.90;;;18.90;91.90;;;;;;5050697;28;21011;-53
2021/08/01 02:59:30;;;;;;;8.30;4.00;;;18.90;92.00;;;;;;5050571;28;20548;-53
2021/08/01 03:01:58;;;;;;;5.60;3.50;;;18.90;92.20;;;;;;5050949;28;21027;-53
2021/08/01 03:04:29;;;;;;;3.80;2.77;;;18.90;92.30;;;;;;5050821;28;20876;-53
2021/08/01 03:06:56;;;;;;;5.77;3.20;;;18.90;92.40;;;;;;5051969;28;20544;-53
2021/08/01 03:09:25;;;;;;;3.90;3.50;;;18.90;92.50;;;;;;5050291;28;20445;-54
2021/08/01 03:12:06;;;;;;;3.87;3.47;;;18.90;92.60;;;;;;5050564;28;21029;-53
2021/08/01 03:14:35;;;;;;;3.97;3.27;;;18.90;92.70;;;;;;5050682;28;20471;-53
2021/08/01 03:17:04;;;;;;;4.87;3.13;;;18.80;92.80;;;;;;5050325;28;20476;-53
2021/08/01 03:19:32;;;;;;;3.60;2.87;;;18.80;92.90;;;;;;5050032;28;20459;-53
2021/08/01 03:21:59;;;;;;;3.47;3.17;;;18.80;92.90;;;;;;5050570;28;20545;-53
2021/08/01 03:24:31;;;;;;;3.53;3.17;;;18.80;93.10;;;;;;5051803;28;20928;-53
2021/08/01 03:27:06;;;;;;;4.47;3.00;;;18.70;93.10;;;;;;5050387;28;20467;-53
2021/08/01 03:29:33;;;;;;;3.90;3.50;;;18.80;93.20;;;;;;5050186;28;20484;-53
2021/08/01 03:32:01;;;;;;;4.00;2.83;;;18.70;93.30;;;;;;5050019;28;20445;-53
2021/08/01 03:34:27;;;;;;;4.47;3.20;;;18.70;93.40;;;;;;5051574;28;20437;-53
2021/08/01 03:36:56;;;;;;;5.90;3.33;;;18.50;93.40;;;;;;5050562;28;20640;-53
2021/08/01 03:39:42;;;;;;;3.97;3.50;;;18.70;93.70;;;;;;5051287;28;20429;-53
2021/08/01 03:42:10;;;;;;;4.33;3.80;;;18.70;93.70;;;;;;5050253;28;20450;-53
2021/08/01 03:44:37;;;;;;;3.50;3.20;;;18.70;94.00;;;;;;5051621;28;20445;-53
2021/08/01 03:47:04;;;;;;;4.40;2.93;;;18.70;94.00;;;;;;5051391;28;20489;-53
2021/08/01 03:49:30;;;;;;;4.87;2.93;;;18.70;94.10;;;;;;5051285;28;20918;-53
2021/08/01 03:51:57;;;;;;;4.03;3.50;;;18.80;94.30;;;;;;5051691;28;20808;-53
2021/08/01 03:54:23;;;;;;;3.67;3.03;;;18.70;94.30;;;;;;5051323;28;20441;-53
2021/08/01 03:56:50;;;;;;;3.90;3.57;;;18.70;94.50;;;;;;5051172;28;20479;-53
2021/08/01 03:59:18;;;;;;;4.10;3.70;;;18.70;94.60;;;;;;5050918;28;20535;-52
2021/08/01 04:01:45;;;;;;;3.80;3.43;;;18.70;94.60;;;;;;5051219;28;20511;-53
2021/08/01 04:04:12;;;;;;;7.20;3.80;;;19.10;94.90;;;;;;5051283;28;20490;-53
2021/08/01 04:06:38;;;;;;;6.13;4.27;;;18.80;94.80;;;;;;5051110;28;20495;-53
2021/08/01 04:09:05;;;;;;;3.77;3.37;;;18.70;94.90;;;;;;5050936;28;20540;-53
2021/08/01 04:11:32;;;;;;;4.67;3.90;;;18.80;95.00;;;;;;5051145;28;20458;-53
2021/08/01 04:13:59;;;;;;;3.77;3.37;;;18.70;95.00;;;;;;5051192;28;20441;-53
2021/08/01 04:16:27;;;;;;;3.83;3.30;;;18.80;95.10;;;;;;5051038;28;20467;-53
2021/08/01 04:18:53;;;;;;;3.87;3.53;;;18.80;95.20;;;;;;5050990;28;20432;-53
2021/08/01 04:21:20;;;;;;;5.20;3.80;;;18.80;95.20;;;;;;5051296;28;20977;-53
2021/08/01 04:23:47;;;;;;;4.70;3.20;;;18.90;95.30;;;;;;5051105;28;20816;-53
2021/08/01 04:26:13;;;;;;;4.23;3.83;;;18.90;95.40;;;;;;5050989;28;20997;-53
2021/08/01 04:28:40;;;;;;;4.30;3.50;;;18.90;95.50;;;;;;5050798;28;20871;-53
2021/08/01 04:31:07;;;;;;;3.90;3.50;;;18.90;95.50;;;;;;5049983;28;20453;-53
2021/08/01 04:33:36;;;;;;;3.53;3.23;;;18.80;95.60;;;;;;5051547;28;20795;-53
2021/08/01 04:36:03;;;;;;;4.53;3.77;;;18.90;95.60;;;;;;5051124;28;20464;-53
2021/08/01 04:38:30;;;;;;;6.53;3.57;;;19.00;95.60;;;;;;5050664;28;20532;-53
2021/08/01 04:40:57;;;;;;;4.57;3.67;;;19.00;95.60;;;;;;5051296;28;20430;-53
2021/08/01 04:43:23;;;;;;;4.87;3.07;;;19.00;95.60;;;;;;5050983;28;20461;-53
2021/08/01 04:45:50;;;;;;;4.50;3.20;;;19.10;95.60;;;;;;5050836;28;20487;-53
2021/08/01 04:48:17;;;;;;;3.83;2.83;;;19.10;95.70;;;;;;5050375;28;20449;-53
2021/08/01 04:50:45;;;;;;;4.33;3.17;;;19.10;95.60;;;;;;5052015;28;20473;-53
2021/08/01 04:53:11;;;;;;;4.43;3.63;;;19.10;95.70;;;;;;5054572;28;20436;-54
2021/08/01 04:55:39;;;;;;;6.00;3.50;;;19.10;95.70;;;;;;5054424;28;20433;-53
2021/08/01 04:58:06;;;;;;;5.50;3.57;;;19.20;95.70;;;;;;5082600;22;20550;-52
2021/08/01 05:00:33;;;;;;;4.77;3.40;;;19.20;95.60;;;;;;5074268;28;20534;-50
2021/08/01 05:02:59;;;;;;;5.90;3.70;;;19.30;95.70;;;;;;5073916;28;20440;-50
2021/08/01 05:05:26;;;;;;;6.10;3.60;;;19.30;95.70;;;;;;5073794;28;20433;-51
2021/08/01 05:07:54;;;;;;;4.97;3.37;;;19.30;95.80;;;;;;5073764;28;20456;-50
2021/08/01 05:10:21;;;;;;;5.73;3.90;;;19.20;95.80;;;;;;5073245;28;20524;-51
2021/08/01 05:12:47;;;;;;;5.87;4.03;;;19.40;95.80;;;;;;5073817;28;20436;-50
2021/08/01 05:15:14;;;;;;;8.17;3.70;;;19.40;95.90;;;;;;5073734;28;20914;-50
2021/08/01 05:17:41;;;;;;;5.40;4.10;;;19.40;95.90;;;;;;5073497;28;20583;-51
2021/08/01 05:20:08;;;;;;;4.57;4.07;;;19.40;96.00;;;;;;5073386;28;20971;-50
2021/08/01 05:22:35;;;;;;;6.10;3.80;;;19.50;96.00;;;;;;5073511;28;20429;-50
2021/08/01 05:25:04;;;;;;;4.50;3.87;;;19.60;96.00;;;;;;5055459;28;20449;-50
2021/08/01 05:27:30;;;;;;;5.23;3.80;;;19.60;95.90;;;;;;5073347;28;20520;-51
2021/08/01 05:29:57;;;;;;;5.47;3.90;;;19.60;96.00;;;;;;5054884;28;20484;-50
2021/08/01 05:32:23;;;;;;;3.83;3.40;;;19.70;95.90;;;;;;5073200;28;20437;-49
2021/08/01 05:34:50;;;;;;;6.20;4.10;;;19.70;95.70;;;;;;5074593;28;20918;-50
2021/08/01 05:37:17;;;;;;;5.10;3.60;;;19.70;95.80;;;;;;5073010;28;20479;-51
2021/08/01 05:39:43;;;;;;;4.77;4.00;;;19.70;95.70;;;;;;5072454;28;20439;-50
2021/08/01 05:42:11;;;;;;;4.17;3.70;;;19.80;95.60;;;;;;5073203;28;20437;-50
2021/08/01 05:44:38;;;;;;;3.60;3.30;;;19.80;95.60;;;;;;5072844;28;20430;-50
2021/08/01 05:47:06;;;;;;;4.70;4.20;;;19.90;95.60;;;;;;5072774;28;20488;-50
2021/08/01 05:49:34;;;;;;;5.73;3.80;;;19.90;95.50;;;;;;5072500;28;20966;-51
2021/08/01 05:52:01;;;;;;;4.23;3.83;;;19.90;95.50;;;;;;5054730;28;20871;-51
2021/08/01 05:54:27;;;;;;;4.33;3.83;;;19.90;95.40;;;;;;5072652;28;20448;-50
2021/08/01 05:56:54;;;;;;;5.90;4.40;;;19.90;95.30;;;;;;5073067;28;20840;-51
2021/08/01 05:59:22;;;;;;;5.70;4.30;;;20.00;95.40;;;;;;5072652;28;20925;-50
2021/08/01 06:01:49;;;;;;;5.00;4.20;;;20.00;95.40;;;;;;5072469;28;20445;-50
2021/08/01 06:04:15;;;;;;;6.03;4.10;;;20.10;95.40;;;;;;5072537;28;20929;-51
2021/08/01 06:06:42;;;;;;;4.37;3.97;;;20.10;95.30;;;;;;5071910;28;20485;-51
2021/08/01 06:09:08;;;;;;;4.47;4.07;;;20.10;95.30;;;;;;5072260;28;20428;-51
2021/08/01 06:11:35;;;;;;;11.03;5.07;;;19.90;95.20;;;;;;5072483;28;20968;-50
2021/08/01 06:14:01;;;;;;;4.80;4.17;;;20.20;95.50;;;;;;5072572;28;20429;-50
2021/08/01 06:16:30;;;;;;;8.10;5.27;;;20.00;95.40;;;;;;5072318;28;20453;-50
2021/08/01 06:18:57;;;;;;;5.40;4.70;;;20.10;95.30;;;;;;5072058;28;20445;-50
2021/08/01 06:21:23;;;;;;;6.83;4.10;;;20.20;95.30;;;;;;5072259;28;20433;-49
2021/08/01 06:23:51;;;;;;;5.67;4.90;;;20.20;95.20;;;;;;5072563;28;20554;-51
2021/08/01 06:26:19;;;;;;;4.30;3.90;;;20.30;95.10;;;;;;5072349;28;20469;-51
2021/08/01 06:28:46;;;;;;;5.07;4.07;;;20.30;94.90;;;;;;5053923;28;20444;-51
2021/08/01 06:31:14;;;;;;;4.50;3.93;;;20.40;94.80;;;;;;5072117;28;20443;-51
2021/08/01 06:33:43;;;;;;;5.47;3.87;;;20.50;94.60;;;;;;5072016;28;20435;-51
2021/08/01 06:36:11;;;;;;;5.43;3.33;;;20.40;94.30;;;;;;5071864;28;20429;-50
2021/08/01 06:38:39;;;;;;;3.47;3.17;;;20.60;94.20;;;;;;5053577;28;20489;-51
2021/08/01 06:41:06;;;;;;;4.43;2.93;;;20.70;94.10;;;;;;5071839;28;20438;-51
2021/08/01 06:43:34;;;;;;;5.63;3.93;;;20.70;93.90;;;;;;5071966;28;20433;-50
2021/08/01 06:46:00;;;;;;;5.93;2.67;;;20.80;93.60;;;;;;5072435;28;20481;-51
2021/08/01 06:48:28;;;;;;;3.77;3.37;;;20.80;93.30;;;;;;5054092;28;20466;-50
2021/08/01 06:50:56;;;;;;;3.50;3.00;;;20.90;93.10;;;;;;5071685;28;20470;-51
2021/08/01 06:53:23;;;;;;;4.03;2.27;;;21.00;93.00;;;;;;5072052;28;20433;-51
2021/08/01 06:55:49;;;;;;;4.00;2.87;;;21.00;92.70;;;;;;5072018;28;20857;-50
2021/08/01 06:58:19;;;;;;;5.57;3.20;;;21.10;92.50;;;;;;5071383;28;20556;-50
2021/08/01 07:00:47;;;;;;;3.37;2.03;;;21.10;92.30;;;;;;5071585;28;20449;-50
2021/08/01 07:03:14;;;;;;;3.43;2.60;;;21.20;92.20;;;;;;5071582;28;20427;-50
2021/08/01 07:05:41;;;;;;;4.40;2.50;;;21.20;91.80;;;;;;5071666;28;20443;-50
2021/08/01 07:08:09;;;;;;;4.03;2.60;;;21.30;91.70;;;;;;5070918;28;20487;-50
2021/08/01 07:10:36;;;;;;;5.60;2.60;;;21.30;91.60;;;;;;5071359;28;20450;-51
2021/08/01 07:13:03;;;;;;;4.80;3.00;;;21.30;91.50;;;;;;5070749;28;20443;-50
2021/08/01 07:15:30;;;;;;;4.13;2.67;;;21.40;91.40;;;;;;5071180;28;20949;-51
2021/08/01 07:17:58;;;;;;;2.87;2.37;;;21.50;91.20;;;;;;5052972;28;20489;-51
2021/08/01 07:20:25;;;;;;;4.40;2.77;;;21.50;91.10;;;;;;5071031;28;20427;-50
2021/08/01 07:22:52;;;;;;;3.53;2.77;;;21.50;90.90;;;;;;5071362;28;20434;-50
2021/08/01 07:25:21;;;;;;;3.40;2.60;;;21.50;90.80;;;;;;5052991;28;20981;-50
2021/08/01 07:27:48;;;;;;;3.23;2.93;;;21.50;90.80;;;;;;5070917;28;20968;-50
2021/08/01 07:30:14;;;;;;;3.23;2.80;;;21.50;90.80;;;;;;5071005;28;20423;-49
2021/08/01 07:32:41;;;;;;;4.27;2.43;;;21.60;90.80;;;;;;5071127;28;20899;-51
2021/08/01 07:35:09;;;;;;;3.87;2.83;;;21.50;90.80;;;;;;5071289;28;20481;-50
2021/08/01 07:37:36;;;;;;;4.10;2.87;;;21.50;90.80;;;;;;5071093;28;20859;-50
2021/08/01 07:40:03;;;;;;;3.70;2.73;;;21.50;90.80;;;;;;5070893;28;20866;-50
2021/08/01 07:42:32;;;;;;;3.63;3.20;;;21.50;90.90;;;;;;5070763;28;20441;-50
2021/08/01 07:45:02;;;;;;;4.80;3.40;;;21.50;90.90;;;;;;5071041;28;20427;-50
2021/08/01 07:47:30;;;;;;;5.13;3.10;;;21.50;90.80;;;;;;5070929;28;20489;-50
2021/08/01 07:49:57;;;;;;;4.13;3.20;;;21.60;91.00;;;;;;5070824;28;20443;-51
2021/08/01 07:52:24;;;;;;;4.97;2.90;;;21.70;90.90;;;;;;5070982;28;20443;-51
2021/08/01 07:54:51;;;;;;;3.50;2.93;;;21.80;90.80;;;;;;5070597;28;20452;-51
2021/08/01 07:57:25;;;;;;;5.77;3.30;;;21.90;90.70;;;;;;5070777;28;21011;-51
2021/08/01 07:59:54;;;;;;;3.33;2.83;;;22.00;90.50;;;;;;5070954;28;20433;-51
2021/08/01 08:02:21;;;;;;;3.07;2.77;;;22.10;90.30;;;;;;5071143;28;20463;-51
2021/08/01 08:04:48;;;;;;;3.87;2.83;;;22.10;90.20;;;;;;5070884;28;20966;-51
2021/08/01 08:07:14;;;;;;;3.30;3.00;;;22.20;90.10;;;;;;5070611;28;20483;-51
2021/08/01 08:09:41;;;;;;;3.53;3.17;;;22.20;90.00;;;;;;5070496;28;20433;-51
2021/08/01 08:12:08;;;;;;;5.70;2.30;;;22.20;90.00;;;;;;5070789;28;20432;-51
2021/08/01 08:14:35;;;;;;;3.27;2.70;;;22.20;89.90;;;;;;5070746;28;20452;-51
2021/08/01 08:17:04;;;;;;;4.50;3.37;;;22.10;89.90;;;;;;5070997;28;20462;-50
2021/08/01 08:19:31;;;;;;;3.93;3.10;;;22.10;90.00;;;;;;5070842;28;20437;-51
2021/08/01 08:21:59;;;;;;;4.73;4.33;;;22.20;90.10;;;;;;5070906;28;20795;-51
2021/08/01 08:24:26;;;;;;;4.93;2.93;;;22.30;90.20;;;;;;5070874;28;20432;-50
2021/08/01 08:26:53;;;;;;;4.67;2.87;;;22.10;90.10;;;;;;5073292;28;20977;-51
2021/08/01 08:29:23;;;;;;;4.97;3.60;;;22.10;90.10;;;;;;5074149;28;20428;-49
2021/08/01 08:31:51;;;;;;;3.97;3.03;;;22.00;90.20;;;;;;5074460;28;20436;-50
2021/08/01 08:34:20;;;;;;;3.80;3.40;;;22.00;90.30;;;;;;5056266;28;20831;-50
2021/08/01 08:36:49;;;;;;;2.87;2.50;;;22.10;90.60;;;;;;5073932;28;20449;-50
2021/08/01 08:39:17;;;;;;;3.30;2.73;;;22.20;90.10;;;;;;5073677;28;20471;-49
2021/08/01 08:41:43;;;;;;;3.33;2.80;;;22.40;89.90;;;;;;5074474;28;20447;-51
2021/08/01 08:44:10;;;;;;;4.80;3.33;;;22.50;89.30;;;;;;5055950;28;20534;-51
2021/08/01 08:46:38;;;;;;;3.60;3.30;;;22.60;89.30;;;;;;5073911;28;20483;-51
2021/08/01 08:49:08;;;;;;;3.03;2.73;;;22.70;88.30;;;;;;5073174;28;20443;-51
2021/08/01 08:51:38;;;;;;;2.97;2.40;;;22.80;88.00;;;;;;5074201;28;20536;-51
2021/08/01 08:54:08;;;;;;;3.17;2.67;;;22.80;87.60;;;;;;5074105;28;20787;-49
2021/08/01 08:56:35;;;;;;;5.90;3.27;;;22.90;87.40;;;;;;5073630;28;20463;-49
2021/08/01 08:59:03;;;;;;;5.07;2.80;;;23.00;87.10;;;;;;5073807;28;20450;-54
2021/08/01 09:01:29;;;;;;;3.40;3.00;;;23.00;86.90;;;;;;5074350;28;20812;-49
2021/08/01 09:03:56;;;;;;;4.20;3.63;;;23.10;86.60;;;;;;5073965;28;20441;-49
2021/08/01 09:06:22;;;;;;;3.77;3.23;;;23.10;86.40;;;;;;5073636;28;20545;-50
2021/08/01 09:08:50;;;;;;;3.63;2.90;;;23.20;86.30;;;;;;5073374;28;21007;-51
2021/08/01 09:11:17;;;;;;;3.07;2.77;;;23.20;86.40;;;;;;5074631;28;20929;-50
2021/08/01 09:13:46;;;;;;;6.70;3.60;;;23.20;86.40;;;;;;5073639;28;20429;-52
2021/08/01 09:16:13;;;;;;;6.30;3.70;;;23.20;86.30;;;;;;5073759;28;20447;-50
2021/08/01 09:18:40;;;;;;;4.93;2.83;;;23.10;85.90;;;;;;5073078;28;20429;-51
2021/08/01 09:21:06;;;;;;;4.90;3.57;;;23.30;85.90;;;;;;5073553;28;20438;-50
2021/08/01 09:23:35;;;;;;;4.03;2.50;;;23.30;85.60;;;;;;5073411;28;20517;-50
2021/08/01 09:26:05;;;;;;;4.30;3.17;;;23.40;85.60;;;;;;5073480;28;20547;-52
2021/08/01 09:28:33;;;;;;;4.77;3.03;;;23.40;85.50;;;;;;5072991;28;20481;-51
2021/08/01 09:31:01;;;;;;;4.80;3.50;;;23.50;85.60;;;;;;5073588;28;20457;-52
2021/08/01 09:33:36;;;;;;;3.77;3.07;;;23.60;85.00;;;;;;5073465;28;20435;-51
2021/08/01 09:36:11;;;;;;;3.27;2.87;;;23.70;84.80;;;;;;5072450;28;20434;-51
2021/08/01 09:38:45;;;;;;;4.40;3.00;;;23.80;84.50;;;;;;5072531;28;20475;-52
2021/08/01 09:41:13;;;;;;;3.60;2.73;;;23.90;83.50;;;;;;5072897;28;20442;-51
2021/08/01 09:43:48;;;;;;;6.90;2.80;;;23.70;82.60;;;;;;5073427;28;20882;-51
2021/08/01 09:46:15;;;;;;;3.90;3.37;;;23.90;82.10;;;;;;5072903;28;20457;-51
2021/08/01 09:48:41;;;;;;;3.37;3.07;;;23.90;81.90;;;;;;5072601;28;20484;-50
2021/08/01 09:51:10;;;;;;;3.63;3.17;;;23.90;81.60;;;;;;5072669;28;20510;-50
2021/08/01 09:53:40;;;;;;;3.20;2.90;;;23.90;81.20;;;;;;5072917;28;20457;-50
2021/08/01 09:56:16;;;;;;;6.90;3.40;;;23.90;81.50;;;;;;5072641;28;20441;-52
2021/08/01 09:58:44;;;;;;;6.40;3.20;;;23.90;81.50;;;;;;5071915;28;20542;-50
2021/08/01 10:01:11;;;;;;;4.10;2.90;;;23.90;81.30;;;;;;5072504;28;20885;-51
2021/08/01 10:03:39;;;;;;;3.30;3.00;;;23.90;80.80;;;;;;5072587;28;20438;-51
2021/08/01 10:06:11;;;;;;;4.87;2.90;;;23.90;80.80;;;;;;5053903;28;20965;-50
2021/08/01 10:08:39;;;;;;;4.60;3.40;;;24.10;80.90;;;;;;5071680;28;20806;-51
2021/08/01 10:11:15;;;;;;;3.37;2.70;;;24.10;80.90;;;;;;5072522;28;20521;-49
2021/08/01 10:13:44;;;;;;;6.00;2.97;;;24.00;80.80;;;;;;5072083;28;20429;-51
2021/08/01 10:16:11;;;;;;;4.77;2.70;;;23.90;80.90;;;;;;5072456;28;20440;-50
2021/08/01 10:18:39;;;;;;;4.00;2.97;;;23.90;81.20;;;;;;5071760;28;20460;-50
2021/08/01 10:21:06;;;;;;;5.50;3.20;;;23.90;81.20;;;;;;5072184;28;20438;-51
2021/08/01 10:23:40;;;;;;;3.60;3.10;;;23.90;81.30;;;;;;5055366;28;21025;-50
2021/08/01 10:26:08;;;;;;;3.63;2.90;;;23.90;81.40;;;;;;5072350;28;20438;-51
2021/08/01 10:28:41;;;;;;;4.63;3.43;;;24.00;81.40;;;;;;5071694;28;20486;-52
2021/08/01 10:31:11;;;;;;;3.10;2.77;;;24.10;80.90;;;;;;5072480;28;20443;-51
2021/08/01 10:33:52;;;;;;;4.17;3.20;;;24.20;80.50;;;;;;5072455;28;20440;-51
2021/08/01 10:36:25;;;;;;;3.77;3.27;;;24.30;80.50;;;;;;5071506;28;20445;-50
2021/08/01 10:38:53;;;;;;;3.57;2.87;;;24.50;80.30;;;;;;5071411;28;20437;-50
2021/08/01 10:41:25;;;;;;;5.33;3.60;;;24.60;79.90;;;;;;5071530;28;20428;-50
2021/08/01 10:43:55;;;;;;;5.50;3.23;;;24.70;79.60;;;;;;5071592;28;20472;-51
2021/08/01 10:46:23;;;;;;;4.73;2.70;;;24.90;79.00;;;;;;5071673;28;20460;-51
2021/08/01 10:48:49;;;;;;;4.60;3.50;;;24.90;79.10;;;;;;5070498;28;20480;-51
2021/08/01 10:51:16;;;;;;;5.67;3.60;;;24.90;78.70;;;;;;5071274;28;20758;-51
2021/08/01 10:53:43;;;;;;;3.57;3.03;;;25.10;78.60;;;;;;5071016;28;20429;-50
2021/08/01 10:56:34;;;;;;;5.10;3.40;;;25.10;78.30;;;;;;5071184;28;20805;-51
2021/08/01 10:59:02;;;;;;;5.93;3.27;;;25.20;77.90;;;;;;5077545;22;20557;-54
2021/08/01 11:01:29;;;;;;;5.10;3.20;;;25.20;77.90;;;;;;5051735;28;20438;-54
2021/08/01 11:04:26;;;;;;;3.33;3.03;;;25.40;77.40;;;;;;5051818;28;20453;-54
2021/08/01 11:06:53;;;;;;;6.80;2.70;;;25.40;76.20;;;;;;5051031;28;20538;-53
2021/08/01 11:09:19;;;;;;;4.67;3.10;;;25.40;76.30;;;;;;5051038;28;20478;-53
2021/08/01 11:12:10;;;;;;;3.23;2.57;;;25.40;75.90;;;;;;5051032;28;20520;-53
2021/08/01 11:14:48;;;;;;;6.20;3.30;;;25.50;76.00;;;;;;5051524;28;20437;-54
2021/08/01 11:17:16;;;;;;;3.30;3.00;;;25.40;75.50;;;;;;5051279;28;20762;-53
2021/08/01 11:19:43;;;;;;;4.63;3.10;;;25.20;76.30;;;;;;5051011;28;20991;-54
2021/08/01 11:22:50;;;;;;;4.73;3.10;;;25.10;76.40;;;;;;5050956;28;20426;-54
2021/08/01 11:25:21;;;;;;;3.07;2.77;;;25.20;76.50;;;;;;5051100;28;20442;-54
2021/08/01 11:28:28;;;;;;;3.70;3.33;;;25.20;76.20;;;;;;5051091;28;20521;-54
2021/08/01 11:31:18;;;;;;;3.43;3.10;;;25.20;75.20;;;;;;5051168;28;20446;-54
2021/08/01 11:33:46;;;;;;;3.43;2.97;;;25.30;74.90;;;;;;5051131;28;20427;-54
2021/08/01 11:36:31;;;;;;;2.40;2.20;;;25.30;74.80;;;;;;5051188;28;20801;-55
2021/08/01 11:39:04;;;;;;;2.63;2.30;;;25.40;73.80;;;;;;5032868;28;20462;-54
2021/08/01 11:41:42;;;;;;;2.73;2.53;;;25.50;74.80;;;;;;5050824;28;20438;-55
2021/08/01 11:44:21;;;;;;;2.83;2.60;;;25.60;73.30;;;;;;5051326;28;20862;-55
2021/08/01 11:47:11;;;;;;;3.93;2.70;;;25.60;72.80;;;;;;5051162;28;20435;-53
2021/08/01 11:49:48;;;;;;;4.00;2.70;;;25.60;72.30;;;;;;5051218;28;20478;-53
2021/08/01 11:52:21;;;;;;;2.90;2.70;;;25.60;72.10;;;;;;5051656;28;20803;-53
2021/08/01 11:54:54;;;;;;;3.27;2.70;;;25.50;72.20;;;;;;5051038;28;20543;-54
2021/08/01 11:57:21;;;;;;;3.37;2.50;;;25.50;72.10;;;;;;5051259;28;20481;-53
2021/08/01 11:59:53;;;;;;;4.13;2.73;;;25.60;72.00;;;;;;5034013;28;20546;-54
2021/08/01 12:02:21;;;;;;;3.43;2.90;;;25.80;71.20;;;;;;5055763;28;20524;-54
2021/08/01 12:04:56;;;;;;;3.77;2.70;;;25.80;71.40;;;;;;5055601;28;20438;-55
2021/08/01 12:07:23;;;;;;;4.70;2.70;;;25.90;71.10;;;;;;5054744;28;20454;-54
2021/08/01 12:09:49;;;;;;;3.10;2.83;;;26.00;70.80;;;;;;5054533;28;20431;-54
2021/08/01 12:12:26;;;;;;;5.87;2.50;;;25.90;70.30;;;;;;5055353;28;20518;-53
2021/08/01 12:14:56;;;;;;;2.70;2.37;;;26.00;69.50;;;;;;5055076;28;20484;-53
2021/08/01 12:17:24;;;;;;;4.30;2.70;;;25.90;69.50;;;;;;5054853;28;21024;-54
2021/08/01 12:19:52;;;;;;;3.30;2.50;;;25.90;69.40;;;;;;5036779;28;20569;-55
2021/08/01 12:22:21;;;;;;;3.17;2.87;;;25.90;70.50;;;;;;5054511;28;20442;-53
2021/08/01 12:24:50;;;;;;;3.50;3.20;;;25.90;69.80;;;;;;5055161;28;20433;-53
2021/08/01 12:27:18;;;;;;;3.17;2.87;;;25.90;69.30;;;;;;5054511;28;20557;-53
2021/08/01 12:29:46;;;;;;;2.80;2.47;;;25.90;69.50;;;;;;5054251;28;21014;-55
2021/08/01 12:32:29;;;;;;;3.10;2.37;;;25.80;68.60;;;;;;5054264;28;20441;-53
2021/08/01 12:35:08;;;;;;;3.47;3.10;;;25.80;68.40;;;;;;5054208;28;20500;-53
2021/08/01 12:37:49;;;;;;;2.70;2.40;;;25.80;68.70;;;;;;5053878;28;20970;-53
2021/08/01 12:40:29;;;;;;;2.80;1.97;;;25.80;68.70;;;;;;5053418;28;20426;-54
2021/08/01 12:42:57;;;;;;;3.50;2.57;;;25.80;67.50;;;;;;5054687;28;20457;-54
2021/08/01 12:45:30;;;;;;;2.50;2.30;;;25.80;67.90;;;;;;5054271;28;20506;-53
2021/08/01 12:47:59;;;;;;;4.40;2.40;;;25.70;68.20;;;;;;5054062;28;20489;-54
2021/08/01 12:50:26;;;;;;;4.67;2.27;;;25.70;68.80;;;;;;5054194;28;20426;-52
2021/08/01 12:52:54;;;;;;;2.30;2.10;;;25.70;69.00;;;;;;5054097;28;20449;-54
2021/08/01 12:55:23;;;;;;;2.40;2.20;;;25.60;68.60;;;;;;5054031;28;20541;-54
2021/08/01 12:58:02;;;;;;;2.70;2.50;;;25.70;68.30;;;;;;5053810;28;20497;-54
2021/08/01 13:00:33;;;;;;;3.03;2.50;;;25.70;68.20;;;;;;5053832;28;20434;-54